Cazenovia, WI (53924)

10:42 PM CST on December 28, 2014 (GMT -0600)
Village Hillside | Change Station
CLOSE
Current Station
Personal Weather Station
Location: Cazenovia, WI
Elevation: 991 ft
Nearby Weather Stations

Elev 991 ft 43.52 °N, 90.19 °W | Updated 5 seconds ago

Mostly Cloudy
Mostly Cloudy
20.7 °F
Feels Like 21 °F
N
0.2
Wind Variable Wind from NE
Gusts 2.5 mph

Today
High -- | Low -- °F
--% Chance of Precip.
Yesterday
High -- | Low -- °F
Precip. -- in
7:33 AM 4:32 PM
First Quarter, 55% visible
Pressure 30.28 in
Visibility 10.0 miles
Clouds Clear
Windchill 21 °F
Dew Point 12 °F
Humidity 70%
Rainfall 0.09 in
Snow Depth Not available.
UV 0.0 out of 12
Pollen .10 out of 12
Air Quality Not available.
Flu Activity Not available.
METAR KC35 290435Z AUTO 01005KT 10SM CLR M06/M10 A3028 RMK AO2 T10651096

More Conditions Fewer Conditions

Pressure 30.28 in
Visibility 10.0 miles
Clouds Clear
Windchill 21 °F
Dew Point 12 °F
Humidity 70%
Rainfall 0.09 in
Snow Depth Not available.
UV 0.0 out of 12
Pollen .10 out of 12
Air Quality Not available.
Flu Activity Not available.
METAR KC35 290435Z AUTO 01005KT 10SM CLR M06/M10 A3028 RMK AO2 T10651096

More Conditions Fewer Conditions

10-Day Weather Forecast

Almanac

Astronomy

Dec. 28, 2014 Rise Set
Actual Time
Civil Twilight
Nautical Twilight
Astronomical Twilight
Moon
Length of Visible Light
Length of Day
Tomorrow will be .
, % of the Moon is Illuminated

Today's Extremes

State Highs State Lows

Community

WunderPhotos

Upload Photos

1,781,530 photos uploaded!

WunderBlogs® & News

Nearby

Air Quality

  Air Quality AQ Index Pollutant
Not available.

Snow Depth

Station Depth Elevation

Earthquake Activity

City Distance Mag. Time & Date
Minimum magnitude displayed is 2.5.

Coastal Water Temperatures

Place Temperature

Nearby Weather Stations